Time;durP1;ratioP1;P1;durP2;ratioP2;P2;SDS_P1;SDS_P2;PMS_P1;PMS_P2;Temp;Humidity;BMP_temperature;BMP_pressure;BME280_temperature;BME280_humidity;BME280_pressure;Samples;Min_cycle;Max_cycle;Signal;HPM_P1;HPM_P2
2023/09/07 00:00:18;;;;;;;14.60;9.30;;;;;;;15.84;65.84;101118.94;1744394;81;21334;-55
2023/09/07 00:03:24;;;;;;;12.58;8.28;;;;;;;15.80;65.83;101120.38;1727622;81;21365;-55
2023/09/07 00:06:31;;;;;;;20.30;8.98;;;;;;;15.75;65.88;101118.72;1745497;81;21352;-55
2023/09/07 00:09:39;;;;;;;13.68;8.28;;;;;;;15.74;66.00;101116.15;1745553;81;21227;-54
2023/09/07 00:12:46;;;;;;;13.78;8.73;;;;;;;15.72;66.10;101126.52;1730764;82;21418;-54
2023/09/07 00:15:51;;;;;;;13.30;8.33;;;;;;;15.69;66.17;101123.62;1724581;82;21347;-56
2023/09/07 00:18:58;;;;;;;15.03;8.88;;;;;;;15.67;66.28;101118.81;1708890;82;21315;-54
2023/09/07 00:22:04;;;;;;;13.55;8.78;;;;;;;15.62;66.25;101121.28;1725127;82;21483;-54
2023/09/07 00:25:11;;;;;;;11.63;8.58;;;;;;;15.58;66.23;101126.00;1724466;82;21402;-54
2023/09/07 00:28:19;;;;;;;16.23;9.05;;;;;;;15.53;66.27;101125.19;1724715;82;21374;-55
2023/09/07 00:31:26;;;;;;;14.73;8.38;;;;;;;15.51;66.38;101123.65;1724367;83;21367;-54
2023/09/07 00:34:33;;;;;;;12.95;9.03;;;;;;;15.48;66.42;101111.61;1724569;82;21382;-54
2023/09/07 00:37:40;;;;;;;11.45;9.28;;;;;;;15.43;66.46;101119.09;1724612;82;21374;-54
2023/09/07 00:40:48;;;;;;;13.15;8.95;;;;;;;15.40;66.59;101118.09;1724399;82;21916;-54
2023/09/07 00:43:55;;;;;;;14.07;8.53;;;;;;;15.41;66.81;101117.06;1724351;82;21702;-55
2023/09/07 00:47:01;;;;;;;14.90;8.63;;;;;;;15.43;67.06;101116.88;1724582;82;21248;-55
2023/09/07 00:50:07;;;;;;;15.08;9.08;;;;;;;15.43;67.20;101116.33;1724278;83;21896;-55
2023/09/07 00:53:12;;;;;;;10.40;8.20;;;;;;;15.44;67.32;101124.09;1724496;82;21362;-55
2023/09/07 00:56:17;;;;;;;14.65;8.88;;;;;;;15.45;67.45;101115.63;1724962;82;21384;-55
2023/09/07 00:59:25;;;;;;;11.90;8.68;;;;;;;15.46;67.42;101122.84;1724485;82;23241;-55
2023/09/07 01:02:31;;;;;;;13.35;8.55;;;;;;;15.44;67.38;101122.71;1724590;83;21415;-54
2023/09/07 01:06:24;;;;;;;14.75;8.45;;;;;;;15.44;67.48;101123.58;1724177;83;21350;-55
2023/09/07 01:09:31;;;;;;;15.33;8.47;;;;;;;15.41;67.47;101123.96;1638987;87;21224;-54
2023/09/07 01:12:37;;;;;;;12.60;8.70;;;;;;;15.39;67.53;101114.14;1729899;80;21457;-55
2023/09/07 01:15:44;;;;;;;10.88;8.65;;;;;;;15.37;67.66;101119.81;1745333;82;21212;-54
2023/09/07 01:18:52;;;;;;;12.30;8.70;;;;;;;15.37;67.71;101125.33;1745395;81;21396;-54
2023/09/07 01:21:58;;;;;;;11.30;8.20;;;;;;;15.34;67.63;101138.13;1745728;81;21216;-55
2023/09/07 01:25:04;;;;;;;13.30;8.35;;;;;;;15.32;67.82;101129.17;1745392;82;21211;-55
2023/09/07 01:28:04;;;;;;;11.68;8.70;;;;;;;15.34;68.04;101128.98;1745106;82;21954;-54
2023/09/07 01:31:09;;;;;;;12.63;8.55;;;;;;;15.35;68.16;101139.83;1745428;81;21759;-54
2023/09/07 01:34:16;;;;;;;14.65;9.28;;;;;;;15.35;68.28;101141.21;1745342;82;21377;-54
2023/09/07 01:37:23;;;;;;;12.90;9.03;;;;;;;15.37;68.42;101139.64;1745344;81;21745;-54
2023/09/07 01:40:28;;;;;;;12.15;8.98;;;;;;;15.39;68.49;101140.35;1745405;82;21231;-54
2023/09/07 01:43:34;;;;;;;14.53;8.98;;;;;;;15.38;68.51;101136.72;1745372;82;21779;-54
2023/09/07 01:46:42;;;;;;;11.28;7.87;;;;;;;15.36;68.41;101129.66;1745356;82;21365;-54
2023/09/07 01:49:49;;;;;;;10.55;8.50;;;;;;;15.32;68.31;101133.86;1745358;82;21236;-55
2023/09/07 01:52:56;;;;;;;13.60;9.23;;;;;;;15.26;68.24;101131.31;1745286;82;21697;-55
2023/09/07 01:56:03;;;;;;;11.85;9.05;;;;;;;15.20;68.20;101132.07;1745399;81;21219;-55
2023/09/07 01:59:09;;;;;;;14.03;8.58;;;;;;;15.16;68.22;101125.74;1745394;81;21247;-54
2023/09/07 02:02:15;;;;;;;12.43;8.60;;;;;;;15.12;68.29;101127.14;1745443;82;21277;-54
2023/09/07 02:05:22;;;;;;;11.63;8.80;;;;;;;15.09;68.32;101124.25;1744900;81;21596;-56
2023/09/07 02:08:27;;;;;;;11.33;8.85;;;;;;;15.05;68.35;101135.30;1745352;82;21223;-55
2023/09/07 02:11:34;;;;;;;12.68;8.48;;;;;;;15.02;68.45;101131.54;1745422;82;21256;-55
2023/09/07 02:14:39;;;;;;;12.53;8.40;;;;;;;14.99;68.55;101132.78;1734927;81;21376;-55
2023/09/07 02:17:45;;;;;;;13.28;8.55;;;;;;;14.95;68.52;101137.48;1724771;82;21347;-55
2023/09/07 02:20:51;;;;;;;12.30;8.48;;;;;;;14.92;68.54;101132.34;1724170;83;21737;-55
2023/09/07 02:23:57;;;;;;;11.68;8.63;;;;;;;14.88;68.52;101125.47;1725542;82;21402;-55
2023/09/07 02:27:04;;;;;;;12.47;8.48;;;;;;;14.84;68.66;101128.27;1724333;83;21343;-54
2023/09/07 02:30:12;;;;;;;12.30;8.45;;;;;;;14.83;68.69;101129.30;1724705;82;21399;-55
2023/09/07 02:33:19;;;;;;;14.65;9.20;;;;;;;14.82;68.78;101128.97;1724285;82;21366;-56
2023/09/07 02:36:25;;;;;;;12.03;8.48;;;;;;;14.83;68.93;101135.67;1724260;83;21372;-56
2023/09/07 02:39:32;;;;;;;14.38;8.58;;;;;;;14.85;68.99;101136.87;1724334;82;21391;-55
2023/09/07 02:42:39;;;;;;;12.58;8.43;;;;;;;14.83;69.08;101133.43;1724355;82;21394;-55
2023/09/07 02:45:45;;;;;;;11.75;8.48;;;;;;;14.84;69.24;101139.30;1724595;82;21439;-56
2023/09/07 02:48:51;;;;;;;11.57;8.45;;;;;;;14.85;69.34;101135.49;1724230;83;21956;-55
2023/09/07 02:51:57;;;;;;;15.78;8.65;;;;;;;14.87;69.52;101145.28;1724152;83;21730;-55
2023/09/07 02:55:04;;;;;;;13.55;8.70;;;;;;;14.94;69.71;101155.05;1724150;83;21456;-54
2023/09/07 02:58:14;;;;;;;14.95;8.60;;;;;;;14.97;69.87;101154.16;1724620;82;21371;-54
2023/09/07 03:01:22;;;;;;;13.68;8.35;;;;;;;15.00;70.00;101148.78;1724242;83;21776;-54
2023/09/07 03:04:29;;;;;;;13.15;8.70;;;;;;;15.05;70.17;101156.53;1724250;82;21375;-56
2023/09/07 03:07:40;;;;;;;15.23;8.43;;;;;;;15.09;70.29;101153.72;1724187;82;21355;-57
2023/09/07 03:10:40;;;;;;;15.03;9.10;;;;;;;15.14;70.40;101163.16;1724188;83;21374;-57
2023/09/07 03:13:34;;;;;;;17.07;8.30;;;;;;;15.19;70.54;101157.08;1724690;82;21418;-57
2023/09/07 03:16:23;;;;;;;16.20;9.83;;;;;;;15.25;70.62;101157.70;1741835;80;21421;-56
2023/09/07 03:19:29;;;;;;;16.23;8.50;;;;;;;15.27;70.71;101162.52;1745445;82;21236;-57
2023/09/07 03:22:34;;;;;;;12.70;8.68;;;;;;;15.32;70.77;101170.56;1745302;82;21266;-56
2023/09/07 03:25:42;;;;;;;12.98;8.33;;;;;;;15.35;70.79;101177.08;1728578;81;21357;-56
2023/09/07 03:28:49;;;;;;;12.65;8.40;;;;;;;15.36;70.79;101182.95;1745273;82;21392;-56
2023/09/07 03:31:56;;;;;;;15.80;8.78;;;;;;;15.37;70.86;101186.03;1744104;82;21196;-56
2023/09/07 03:35:03;;;;;;;13.08;8.53;;;;;;;15.38;70.91;101195.18;1745153;82;21215;-56
2023/09/07 03:38:10;;;;;;;12.00;8.40;;;;;;;15.39;70.95;101199.16;1744108;82;21222;-56
2023/09/07 03:41:15;;;;;;;13.25;8.93;;;;;;;15.41;71.04;101203.98;1745436;81;21370;-56
2023/09/07 03:44:22;;;;;;;13.38;8.08;;;;;;;15.43;71.10;101203.25;1745562;82;21401;-56
2023/09/07 03:47:29;;;;;;;19.95;9.53;;;;;;;15.44;71.17;101203.61;1744820;81;21243;-56
2023/09/07 03:50:36;;;;;;;15.32;9.20;;;;;;;15.46;71.22;101212.53;1744937;81;21204;-56
2023/09/07 03:53:43;;;;;;;13.83;8.33;;;;;;;15.48;71.25;101214.59;1744869;82;21215;-56
2023/09/07 03:56:50;;;;;;;12.95;8.50;;;;;;;15.50;71.32;101221.30;1745478;81;21362;-56
2023/09/07 03:59:56;;;;;;;11.73;8.68;;;;;;;15.51;71.36;101227.14;1745427;81;21932;-55
2023/09/07 04:03:09;;;;;;;16.85;9.15;;;;;;;15.53;71.39;101220.41;1745193;82;21207;-57
2023/09/07 04:06:15;;;;;;;15.28;8.70;;;;;;;15.55;71.47;101226.61;1745115;82;21258;-55
2023/09/07 04:09:20;;;;;;;13.22;8.48;;;;;;;15.57;71.54;101228.63;1745401;82;21369;-55
2023/09/07 04:12:26;;;;;;;13.70;9.00;;;;;;;15.61;71.56;101235.51;1745397;82;21424;-56
2023/09/07 04:15:32;;;;;;;12.98;7.53;;;;;;;15.64;71.55;101237.89;1745042;82;21389;-55
2023/09/07 04:18:42;;;;;;;16.97;8.00;;;;;;;15.67;71.63;101240.27;1745452;82;22282;-57
2023/09/07 04:21:49;;;;;;;12.98;8.45;;;;;;;15.73;71.71;101242.27;1745463;82;21219;-57
2023/09/07 04:24:58;;;;;;;13.15;8.83;;;;;;;15.77;71.76;101245.02;1745403;82;21278;-58
2023/09/07 04:28:07;;;;;;;11.38;7.87;;;;;;;15.82;71.85;101243.93;1744666;82;21200;-57
2023/09/07 04:31:14;;;;;;;10.85;7.97;;;;;;;15.89;71.90;101253.67;1745294;82;21243;-57
2023/09/07 04:34:21;;;;;;;13.10;8.88;;;;;;;15.92;71.92;101255.53;1744983;82;21224;-55
2023/09/07 04:37:26;;;;;;;13.83;8.53;;;;;;;15.98;71.97;101253.39;1747729;81;21793;-56
2023/09/07 04:40:32;;;;;;;10.70;8.25;;;;;;;16.03;72.01;101254.23;1773252;80;21861;-56
2023/09/07 04:43:43;;;;;;;12.13;8.85;;;;;;;16.09;72.10;101254.30;1773350;80;21682;-56
2023/09/07 04:46:46;;;;;;;12.47;7.83;;;;;;;16.16;72.13;101262.69;1772559;80;21395;-57
2023/09/07 04:49:58;;;;;;;20.82;8.75;;;;;;;16.22;72.18;101263.33;1762836;80;21196;-55
2023/09/07 04:53:04;;;;;;;13.98;8.45;;;;;;;16.29;72.26;101260.12;1743739;80;21215;-56
2023/09/07 04:56:12;;;;;;;19.52;8.15;;;;;;;16.37;72.29;101267.80;1743112;80;21744;-58
2023/09/07 04:59:17;;;;;;;13.90;8.05;;;;;;;16.42;72.30;101270.84;1709901;82;21227;-57
2023/09/07 05:02:25;;;;;;;11.50;8.13;;;;;;;16.48;72.34;101265.09;1720856;82;21204;-55
2023/09/07 05:05:31;;;;;;;14.80;8.23;;;;;;;16.56;72.44;101269.65;1722688;82;21190;-54
2023/09/07 05:08:37;;;;;;;12.98;7.40;;;;;;;16.65;72.51;101276.25;1719184;82;21561;-54
2023/09/07 05:11:43;;;;;;;12.40;7.83;;;;;;;16.75;72.58;101277.34;1713003;82;21272;-53
2023/09/07 05:14:48;;;;;;;10.78;7.22;;;;;;;16.85;72.62;101276.52;1708379;82;21352;-54
2023/09/07 05:17:54;;;;;;;12.20;9.03;;;;;;;16.93;72.65;101287.46;1702624;80;22172;-54
2023/09/07 05:21:00;;;;;;;9.35;6.85;;;;;;;17.01;72.68;101277.14;1724556;82;21202;-53
2023/09/07 05:24:06;;;;;;;11.68;6.50;;;;;;;17.12;72.77;101281.30;1698847;84;21292;-52
2023/09/07 05:27:12;;;;;;;10.68;5.92;;;;;;;17.21;72.82;101283.74;1726153;83;21212;-51
2023/09/07 05:30:18;;;;;;;11.93;6.17;;;;;;;17.33;72.84;101282.70;1678481;82;21793;-53
2023/09/07 05:33:24;;;;;;;12.10;6.30;;;;;;;17.42;72.84;101287.91;1671389;83;21753;-53
2023/09/07 05:36:31;;;;;;;9.73;6.50;;;;;;;17.53;72.87;101292.08;1727786;83;21657;-52
2023/09/07 05:39:36;;;;;;;8.45;5.28;;;;;;;17.63;72.88;101292.61;1654181;84;21236;-51
2023/09/07 05:42:42;;;;;;;12.50;6.62;;;;;;;17.71;72.85;101296.07;1722185;81;21356;-54
2023/09/07 05:45:48;;;;;;;9.68;5.65;;;;;;;17.79;72.86;101285.40;1728273;83;21725;-53
2023/09/07 05:48:55;;;;;;;9.80;5.72;;;;;;;17.89;72.85;101293.67;1728473;83;21755;-54
2023/09/07 05:52:00;;;;;;;10.50;5.72;;;;;;;17.96;72.80;101300.66;1728212;83;21204;-54
2023/09/07 05:55:06;;;;;;;10.63;5.45;;;;;;;18.01;72.74;101295.38;1734026;82;21698;-55
2023/09/07 05:58:14;;;;;;;9.78;5.47;;;;;;;18.06;72.67;101298.92;1735451;82;21346;-55
2023/09/07 06:01:21;;;;;;;10.35;5.10;;;;;;;18.09;72.64;101297.99;1736174;81;21413;-54
2023/09/07 06:04:28;;;;;;;7.78;5.50;;;;;;;18.16;72.66;101300.27;1732790;81;21216;-52
2023/09/07 06:07:34;;;;;;;11.85;4.87;;;;;;;18.23;72.67;101308.11;1712918;81;21724;-54
2023/09/07 06:10:42;;;;;;;8.30;5.17;;;;;;;18.31;72.69;101305.17;1728915;82;21216;-53
2023/09/07 06:13:49;;;;;;;9.00;4.60;;;;;;;18.39;72.60;101309.73;1727913;82;21197;-54
2023/09/07 06:16:54;;;;;;;7.58;4.97;;;;;;;18.45;72.56;101318.61;1733038;82;21362;-53
2023/09/07 06:19:59;;;;;;;10.20;5.33;;;;;;;18.53;72.60;101317.92;1731541;82;21219;-54
2023/09/07 06:23:06;;;;;;;9.55;4.60;;;;;;;18.63;72.65;101311.45;1727282;83;21733;-52
2023/09/07 06:26:14;;;;;;;7.80;4.60;;;;;;;18.73;72.65;101323.04;1728335;83;21260;-53
2023/09/07 06:29:22;;;;;;;9.28;4.67;;;;;;;18.82;72.57;101324.56;1723477;82;21797;-53
2023/09/07 06:32:27;;;;;;;7.28;4.08;;;;;;;18.88;72.48;101330.70;1722314;82;21212;-60
2023/09/07 12:22:18;;;;;;;5.60;1.30;;;;;;;23.51;45.29;101382.17;1806522;79;28137;-54
2023/09/07 12:25:25;;;;;;;3.33;1.42;;;;;;;23.44;44.86;101380.00;1835528;77;21686;-56
2023/09/07 12:28:31;;;;;;;3.25;1.50;;;;;;;23.36;44.48;101380.31;1759347;80;21716;-54
2023/09/07 12:31:35;;;;;;;8.50;2.02;;;;;;;23.32;44.32;101384.69;1781357;79;21709;-54
2023/09/07 12:34:42;;;;;;;4.45;1.70;;;;;;;23.30;44.11;101392.45;1757618;79;21511;-58
2023/09/07 12:37:48;;;;;;;5.78;1.62;;;;;;;23.23;43.85;101384.67;1769845;80;21216;-58
2023/09/07 12:40:56;;;;;;;7.83;1.80;;;;;;;23.13;43.50;101383.83;1783564;78;21180;-56
2023/09/07 12:44:00;;;;;;;4.42;1.75;;;;;;;23.07;43.31;101388.09;1805125;79;21736;-56
2023/09/07 12:47:07;;;;;;;4.42;1.70;;;;;;;23.04;43.07;101394.98;1806552;78;21713;-56
2023/09/07 12:50:13;;;;;;;4.95;1.82;;;;;;;23.00;42.81;101391.49;1791220;78;21779;-55
2023/09/07 12:53:25;;;;;;;7.97;1.70;;;;;;;22.93;42.53;101387.94;1792611;80;21697;-55
2023/09/07 12:56:29;;;;;;;3.47;1.60;;;;;;;22.89;42.38;101387.55;1784563;78;21258;-55
2023/09/07 12:59:36;;;;;;;3.42;1.27;;;;;;;22.91;42.20;101390.10;1787092;78;21286;-55
2023/09/07 13:02:42;;;;;;;5.00;1.52;;;;;;;22.92;42.07;101383.42;1790682;80;21230;-54
2023/09/07 13:05:48;;;;;;;10.82;1.80;;;;;;;22.86;41.83;101389.41;1772806;80;21227;-54
2023/09/07 13:08:54;;;;;;;5.70;1.80;;;;;;;22.79;41.61;101394.20;1782530;80;21443;-54
2023/09/07 13:11:59;;;;;;;3.65;1.62;;;;;;;22.77;41.48;101384.36;1790459;79;21689;-54
2023/09/07 13:15:03;;;;;;;9.30;1.50;;;;;;;22.76;41.32;101384.02;1785048;80;21254;-55
2023/09/07 13:18:10;;;;;;;4.90;1.72;;;;;;;22.75;41.12;101380.93;1762286;81;21779;-57
2023/09/07 13:21:17;;;;;;;5.55;1.92;;;;;;;22.75;41.00;101392.97;1764982;78;21303;-58
2023/09/07 13:24:23;;;;;;;9.50;3.35;;;;;;;22.73;40.76;101384.48;1783507;80;21203;-58
2023/09/07 13:27:28;;;;;;;7.40;2.60;;;;;;;22.65;40.59;101388.44;1769110;80;21865;-58
2023/09/07 13:30:33;;;;;;;7.00;2.15;;;;;;;22.64;40.50;101388.67;1755036;79;21254;-56
2023/09/07 13:33:40;;;;;;;3.85;1.82;;;;;;;22.68;40.42;101387.98;1770764;80;21176;-59
2023/09/07 13:36:46;;;;;;;8.55;1.80;;;;;;;22.74;40.35;101388.45;1744735;81;21200;-57
2023/09/07 13:39:53;;;;;;;3.77;1.65;;;;;;;22.74;40.18;101385.66;1771628;79;21358;-59
2023/09/07 13:43:02;;;;;;;4.70;1.70;;;;;;;22.69;39.98;101384.66;1765658;81;21339;-58
2023/09/07 13:46:08;;;;;;;7.12;1.57;;;;;;;22.66;39.94;101396.28;1796329;78;21216;-56
2023/09/07 13:49:22;;;;;;;4.97;1.82;;;;;;;22.59;39.79;101394.95;1795416;78;21182;-57
2023/09/07 13:52:29;;;;;;;3.42;1.87;;;;;;;22.53;39.67;101383.31;1796367;79;21523;-56
2023/09/07 13:55:35;;;;;;;2.95;1.67;;;;;;;22.50;39.58;101389.86;1789323;78;21782;-56
2023/09/07 13:58:41;;;;;;;6.53;1.75;;;;;;;22.49;39.51;101381.16;1775934;79;21251;-55
2023/09/07 14:01:49;;;;;;;5.00;1.65;;;;;;;22.48;39.42;101381.72;1796117;79;21785;-53
2023/09/07 14:04:56;;;;;;;10.40;2.00;;;;;;;22.44;39.32;101378.22;1795218;79;21201;-53
2023/09/07 14:08:01;;;;;;;4.37;2.67;;;;;;;22.39;39.23;101375.26;1772981;81;21228;-54
2023/09/07 14:11:08;;;;;;;8.20;1.80;;;;;;;22.39;39.20;101392.00;1771862;79;21244;-54
2023/09/07 14:14:14;;;;;;;3.15;1.50;;;;;;;22.38;39.11;101387.48;1772673;79;21231;-55
2023/09/07 14:17:20;;;;;;;4.80;1.70;;;;;;;22.33;39.03;101385.38;1760364;79;21943;-56
2023/09/07 14:20:27;;;;;;;4.37;1.77;;;;;;;22.32;38.94;101382.82;1758034;80;21491;-56
2023/09/07 14:23:33;;;;;;;3.58;1.70;;;;;;;22.27;38.85;101379.86;1762506;80;21760;-57
2023/09/07 14:26:40;;;;;;;9.55;1.70;;;;;;;22.23;38.80;101387.29;1762824;80;21199;-56
2023/09/07 14:29:46;;;;;;;4.35;1.55;;;;;;;22.18;38.70;101394.09;1764163;80;21185;-56
2023/09/07 14:32:53;;;;;;;6.80;1.82;;;;;;;22.14;38.67;101384.48;1762056;81;21222;-56
2023/09/07 14:36:01;;;;;;;5.15;1.75;;;;;;;22.10;38.61;101388.78;1734552;80;21216;-53
2023/09/07 14:39:09;;;;;;;7.92;2.02;;;;;;;22.07;38.53;101386.45;1734410;82;21209;-56
2023/09/07 14:42:16;;;;;;;4.85;2.02;;;;;;;22.02;38.47;101389.06;1746303;80;21669;-56
2023/09/07 14:45:21;;;;;;;4.12;1.60;;;;;;;21.99;38.41;101388.69;1749856;79;21728;-53
2023/09/07 14:48:26;;;;;;;7.05;1.87;;;;;;;21.99;38.43;101392.30;1768482;81;21244;-55
2023/09/07 14:51:34;;;;;;;4.33;1.57;;;;;;;21.95;38.38;101395.25;1768259;79;21638;-56
2023/09/07 14:54:41;;;;;;;3.17;1.70;;;;;;;21.89;38.37;101386.39;1767821;79;21219;-56
2023/09/07 14:57:46;;;;;;;4.83;1.80;;;;;;;21.95;38.29;101395.77;1763764;81;22006;-55
2023/09/07 15:00:52;;;;;;;6.78;1.60;;;;;;;21.88;38.17;101390.23;1768339;79;21195;-55
2023/09/07 15:03:59;;;;;;;4.75;2.25;;;;;;;21.82;38.18;101383.31;1768748;81;21204;-55
2023/09/07 15:07:05;;;;;;;6.97;1.75;;;;;;;21.74;38.15;101389.98;1768682;81;21149;-55
2023/09/07 15:10:10;;;;;;;6.90;1.30;;;;;;;21.67;38.12;101391.98;1769158;79;21740;-55
2023/09/07 15:13:16;;;;;;;4.17;1.42;;;;;;;21.61;38.09;101392.02;1747799;81;21223;-55
2023/09/07 15:16:27;;;;;;;3.47;1.60;;;;;;;21.56;38.02;101392.69;1768757;79;21180;-55
2023/09/07 15:19:30;;;;;;;3.17;1.40;;;;;;;21.51;38.01;101391.10;1768650;81;21173;-55
2023/09/07 15:22:35;;;;;;;7.12;1.75;;;;;;;21.42;37.98;101395.20;1769702;80;21188;-54
2023/09/07 15:25:41;;;;;;;6.00;1.70;;;;;;;21.35;37.94;101399.10;1772744;79;21463;-55
2023/09/07 15:28:49;;;;;;;7.50;1.75;;;;;;;21.25;37.96;101400.96;1765933;80;21852;-54
2023/09/07 15:31:56;;;;;;;3.30;1.45;;;;;;;21.16;37.93;101406.47;1772535;80;21234;-54
2023/09/07 15:35:03;;;;;;;3.40;1.50;;;;;;;21.11;37.97;101406.27;1780401;79;21775;-56
2023/09/07 15:38:09;;;;;;;4.22;1.52;;;;;;;21.04;37.96;101408.21;1799468;79;21739;-54
2023/09/07 15:41:14;;;;;;;4.03;1.47;;;;;;;20.97;37.96;101412.09;1798616;79;21766;-56
2023/09/07 15:44:22;;;;;;;7.70;2.10;;;;;;;20.89;37.98;101416.47;1798999;79;21669;-56
2023/09/07 15:47:28;;;;;;;4.75;1.62;;;;;;;20.79;37.98;101418.31;1799153;79;21739;-56
2023/09/07 15:50:34;;;;;;;8.63;2.45;;;;;;;20.70;37.98;101414.06;1796902;78;21243;-57
2023/09/07 15:53:43;;;;;;;6.90;2.62;;;;;;;20.62;38.03;101417.93;1798842;79;21304;-56
2023/09/07 15:56:48;;;;;;;8.30;2.72;;;;;;;20.56;38.08;101416.55;1793632;78;21177;-55
2023/09/07 15:59:58;;;;;;;10.45;3.90;;;;;;;20.48;38.10;101429.28;1787911;79;21204;-54
2023/09/07 16:03:06;;;;;;;14.35;4.70;;;;;;;20.35;38.16;101420.41;1799263;79;21191;-54
2023/09/07 16:06:13;;;;;;;7.97;4.20;;;;;;;20.26;38.21;101420.84;1799354;78;21255;-55
2023/09/07 16:09:20;;;;;;;7.05;3.10;;;;;;;20.15;38.22;101427.88;1778343;79;21949;-54
2023/09/07 16:12:26;;;;;;;8.18;2.85;;;;;;;20.02;38.28;101428.38;1767748;79;21376;-55
2023/09/07 16:15:28;;;;;;;11.95;4.58;;;;;;;19.93;38.37;101436.60;1765205;79;21198;-55
2023/09/07 16:18:34;;;;;;;11.48;3.55;;;;;;;19.81;38.43;101434.97;1780834;79;21219;-54
2023/09/07 16:21:39;;;;;;;7.60;3.00;;;;;;;19.69;38.48;101441.34;1799567;79;21184;-54
2023/09/07 16:24:45;;;;;;;12.30;5.10;;;;;;;19.57;38.54;101441.64;1796637;79;21795;-54
2023/09/07 16:27:53;;;;;;;18.75;5.08;;;;;;;19.46;38.62;101448.63;1791205;79;21176;-54
2023/09/07 16:30:59;;;;;;;15.90;6.83;;;;;;;19.33;38.70;101448.05;1783270;78;21205;-55
2023/09/07 16:34:04;;;;;;;14.20;4.53;;;;;;;19.22;38.82;101455.55;1798612;79;21691;-54
2023/09/07 16:37:10;;;;;;;12.90;4.20;;;;;;;19.12;38.91;101453.66;1798523;79;21260;-55
2023/09/07 16:40:17;;;;;;;12.73;4.62;;;;;;;19.02;39.04;101454.59;1798878;78;21205;-55
2023/09/07 16:43:24;;;;;;;14.40;4.67;;;;;;;18.94;39.10;101460.83;1800542;79;21272;-55
2023/09/07 16:46:31;;;;;;;10.88;3.92;;;;;;;18.83;39.20;101466.42;1800985;78;21198;-54
2023/09/07 16:49:37;;;;;;;11.55;3.47;;;;;;;18.73;39.32;101463.66;1800719;78;21328;-53
2023/09/07 16:52:45;;;;;;;9.28;3.30;;;;;;;18.62;39.46;101471.16;1800150;79;21233;-55
2023/09/07 16:55:51;;;;;;;9.78;3.83;;;;;;;18.53;39.59;101477.41;1799999;78;21255;-55
2023/09/07 16:58:57;;;;;;;16.77;4.12;;;;;;;18.42;39.69;101477.95;1800543;79;21205;-56
2023/09/07 17:02:04;;;;;;;8.03;3.85;;;;;;;18.32;39.79;101480.67;1798256;78;21227;-55
2023/09/07 17:05:14;;;;;;;9.28;4.30;;;;;;;18.22;39.93;101479.62;1799255;78;21259;-54
2023/09/07 17:08:20;;;;;;;11.97;5.12;;;;;;;18.13;40.07;101494.69;1782323;79;21188;-54
2023/09/07 17:11:29;;;;;;;10.90;4.90;;;;;;;18.03;40.21;101494.14;1799081;78;21769;-55
2023/09/07 17:14:36;;;;;;;15.58;5.87;;;;;;;17.95;40.36;101494.81;1799521;78;21204;-55
2023/09/07 17:17:44;;;;;;;14.73;5.60;;;;;;;17.85;40.47;101507.61;1799673;79;21240;-55
2023/09/07 17:20:51;;;;;;;13.08;5.30;;;;;;;17.76;40.59;101505.98;1800194;79;21193;-55
2023/09/07 17:23:59;;;;;;;11.65;4.20;;;;;;;17.67;40.75;101508.03;1799193;79;21228;-55
2023/09/07 17:27:05;;;;;;;9.58;3.87;;;;;;;17.59;40.86;101515.58;1794827;79;21208;-55
2023/09/07 17:30:11;;;;;;;10.98;4.03;;;;;;;17.52;41.00;101513.27;1797837;78;21307;-55
2023/09/07 17:33:17;;;;;;;13.83;3.55;;;;;;;17.45;41.15;101516.47;1797844;79;21665;-54
2023/09/07 17:36:27;;;;;;;11.43;4.10;;;;;;;17.39;41.30;101515.83;1797745;78;21212;-53
2023/09/07 17:39:36;;;;;;;12.03;4.83;;;;;;;17.33;41.48;101522.14;1798336;79;21737;-55
2023/09/07 17:42:44;;;;;;;12.60;4.70;;;;;;;17.28;41.63;101521.84;1775404;81;21883;-54
2023/09/07 17:45:51;;;;;;;12.55;5.22;;;;;;;17.22;41.75;101521.23;1775164;79;21418;-55
2023/09/07 17:48:57;;;;;;;8.48;3.42;;;;;;;17.14;41.88;101519.40;1777272;79;21720;-54
2023/09/07 17:52:03;;;;;;;8.98;3.00;;;;;;;17.08;42.00;101524.83;1797910;79;21347;-55
2023/09/07 17:55:12;;;;;;;9.65;3.47;;;;;;;16.99;42.12;101527.36;1771493;80;21950;-55
2023/09/07 17:58:19;;;;;;;6.45;3.02;;;;;;;16.93;42.24;101522.08;1798698;79;21244;-55
2023/09/07 18:01:26;;;;;;;8.73;2.55;;;;;;;16.85;42.37;101513.87;1791179;80;21386;-54
2023/09/07 18:04:34;;;;;;;9.40;2.95;;;;;;;16.79;42.54;101519.30;1798584;79;21902;-55
2023/09/07 18:07:41;;;;;;;8.88;3.08;;;;;;;16.71;42.66;101521.63;1799418;80;21192;-55
2023/09/07 18:10:48;;;;;;;7.58;3.35;;;;;;;16.65;42.77;101524.27;1799087;80;21169;-54
2023/09/07 18:13:54;;;;;;;9.80;2.65;;;;;;;16.59;42.92;101530.02;1798666;80;21204;-55
2023/09/07 18:17:00;;;;;;;9.98;2.65;;;;;;;16.53;43.08;101536.81;1798408;80;21184;-54
2023/09/07 18:20:07;;;;;;;7.65;2.67;;;;;;;16.48;43.20;101533.73;1798776;79;21204;-55
2023/09/07 18:23:13;;;;;;;6.37;3.25;;;;;;;16.41;43.36;101532.23;1798827;80;21208;-54
2023/09/07 18:26:20;;;;;;;8.68;2.75;;;;;;;16.34;43.46;101533.50;1798930;80;21725;-55
2023/09/07 18:29:27;;;;;;;6.30;2.70;;;;;;;16.28;43.59;101545.27;1793937;80;21323;-55
2023/09/07 18:32:33;;;;;;;8.13;2.52;;;;;;;16.22;43.72;101545.17;1793760;79;21394;-54
2023/09/07 18:35:39;;;;;;;7.67;2.60;;;;;;;16.15;43.84;101549.70;1794094;79;21351;-54
2023/09/07 18:38:47;;;;;;;10.30;2.95;;;;;;;16.08;44.01;101537.14;1794097;80;21339;-54
2023/09/07 18:41:55;;;;;;;8.55;3.20;;;;;;;16.02;44.17;101548.92;1793701;80;21438;-54
2023/09/07 18:45:03;;;;;;;9.58;3.40;;;;;;;15.94;44.27;101543.45;1793697;79;21375;-53
2023/09/07 18:48:10;;;;;;;11.43;3.98;;;;;;;15.86;44.39;101547.64;1794629;79;21327;-54
2023/09/07 18:51:17;;;;;;;9.50;4.12;;;;;;;15.76;44.44;101550.30;1777467;79;21220;-54
2023/09/07 18:54:24;;;;;;;11.93;4.12;;;;;;;15.66;44.56;101551.03;1795053;78;21346;-54
2023/09/07 18:57:31;;;;;;;14.95;7.12;;;;;;;15.57;44.74;101547.98;1769408;80;21890;-55
2023/09/07 19:00:37;;;;;;;16.42;7.97;;;;;;;15.47;44.93;101544.06;1769482;79;21389;-55
2023/09/07 19:03:46;;;;;;;14.65;6.35;;;;;;;15.41;45.14;101548.05;1768860;80;21366;-54
2023/09/07 19:06:51;;;;;;;21.10;10.08;;;;;;;15.33;45.35;101546.16;1746582;80;21228;-54
2023/09/07 19:09:58;;;;;;;19.45;9.28;;;;;;;15.27;45.56;101544.09;1746234;80;21720;-54
2023/09/07 19:13:05;;;;;;;16.70;8.43;;;;;;;15.23;45.80;101545.49;1740046;82;21374;-55
2023/09/07 19:16:11;;;;;;;18.95;8.05;;;;;;;15.19;46.01;101546.03;1740623;81;21417;-54
2023/09/07 19:19:16;;;;;;;13.25;6.67;;;;;;;15.14;46.19;101542.43;1740171;82;21374;-55
2023/09/07 19:22:23;;;;;;;13.95;6.65;;;;;;;15.08;46.30;101549.17;1740143;82;21346;-55
2023/09/07 19:25:32;;;;;;;15.28;6.20;;;;;;;15.00;46.43;101546.76;1740017;80;21354;-54
2023/09/07 19:28:38;;;;;;;10.55;4.20;;;;;;;14.93;46.64;101547.65;1739432;81;21374;-54
2023/09/07 19:31:46;;;;;;;10.58;4.83;;;;;;;14.86;46.86;101541.97;1740567;81;21394;-54
2023/09/07 19:34:53;;;;;;;8.48;4.03;;;;;;;14.86;47.11;101550.75;1739921;80;21346;-54
2023/09/07 19:37:59;;;;;;;7.87;4.20;;;;;;;14.84;47.35;101551.47;1740022;82;21456;-54
2023/09/07 19:41:08;;;;;;;10.38;4.03;;;;;;;14.82;47.54;101555.78;1739585;80;21406;-53
2023/09/07 19:44:16;;;;;;;10.93;3.80;;;;;;;14.81;47.74;101547.65;1739641;82;21859;-54
2023/09/07 19:47:22;;;;;;;12.65;4.20;;;;;;;14.78;47.89;101550.25;1739802;82;21784;-53
2023/09/07 19:50:29;;;;;;;14.05;4.08;;;;;;;14.79;48.06;101555.27;1740028;80;21397;-53
2023/09/07 19:53:35;;;;;;;8.05;3.90;;;;;;;14.75;48.18;101548.36;1739808;82;21894;-54
2023/09/07 19:56:44;;;;;;;7.10;3.35;;;;;;;14.71;48.30;101547.84;1739781;80;21935;-54
2023/09/07 19:59:49;;;;;;;11.08;4.37;;;;;;;14.69;48.44;101555.95;1740412;81;21358;-54
2023/09/07 20:02:57;;;;;;;13.28;4.50;;;;;;;14.68;48.64;101555.62;1739992;82;21346;-55
2023/09/07 20:06:05;;;;;;;10.55;4.45;;;;;;;14.67;48.77;101553.88;1740353;80;21344;-54